Time;durP1;ratioP1;P1;durP2;ratioP2;P2;SDS_P1;SDS_P2;PMS_P1;PMS_P2;Temp;Humidity;BMP_temperature;BMP_pressure;BME280_temperature;BME280_humidity;BME280_pressure;Samples;Min_cycle;Max_cycle;Signal;HPM_P1;HPM_P2
2023/10/18 00:01:21;;;;;;;22.70;15.75;;;;;;;3.78;100.00;100768.19;5575291;31;34808;-65
2023/10/18 00:04:25;;;;;;;21.80;15.43;;;;;;;3.73;100.00;100770.34;5588971;31;34136;-65
2023/10/18 00:07:28;;;;;;;23.62;15.23;;;;;;;3.69;100.00;100765.44;5588828;31;34096;-65
2023/10/18 00:10:33;;;;;;;25.35;16.10;;;;;;;3.75;100.00;100764.97;5588803;31;34193;-64
2023/10/18 00:13:36;;;;;;;23.27;15.00;;;;;;;3.86;100.00;100755.37;5588876;31;33519;-64
2023/10/18 00:16:39;;;;;;;23.08;15.27;;;;;;;3.96;100.00;100749.41;5588703;31;34192;-64
2023/10/18 00:19:42;;;;;;;27.45;14.95;;;;;;;3.82;100.00;100753.09;5588727;31;34002;-65
2023/10/18 00:22:45;;;;;;;27.05;14.65;;;;;;;3.76;100.00;100758.78;5588688;31;34773;-66
2023/10/18 00:25:48;;;;;;;21.12;14.20;;;;;;;3.93;100.00;100761.81;5588557;31;34154;-64
2023/10/18 00:28:51;;;;;;;20.15;14.13;;;;;;;3.95;100.00;100772.19;5588400;31;34838;-64
2023/10/18 00:31:54;;;;;;;21.70;14.82;;;;;;;3.90;100.00;100764.69;5588418;31;34723;-64
2023/10/18 00:35:02;;;;;;;25.15;14.95;;;;;;;3.76;100.00;100757.00;5590034;31;34035;-65
2023/10/18 00:38:10;;;;;;;20.00;14.57;;;;;;;3.68;100.00;100761.16;5590944;31;34141;-64
2023/10/18 00:41:21;;;;;;;19.20;13.93;;;;;;;3.58;100.00;100758.38;5591261;31;35490;-64
2023/10/18 00:44:25;;;;;;;21.05;13.48;;;;;;;3.47;100.00;100755.72;5590794;31;34154;-64
2023/10/18 00:47:30;;;;;;;20.88;13.45;;;;;;;3.37;100.00;100755.56;5590627;31;34092;-65
2023/10/18 00:50:39;;;;;;;22.08;13.75;;;;;;;3.35;100.00;100752.19;5590796;31;34287;-64
2023/10/18 00:53:43;;;;;;;26.35;13.05;;;;;;;3.37;100.00;100752.94;5590784;31;34206;-64
2023/10/18 00:56:50;;;;;;;19.27;13.38;;;;;;;3.28;100.00;100752.78;5590814;31;34040;-64
2023/10/18 00:59:55;;;;;;;22.17;13.43;;;;;;;3.21;100.00;100755.00;5576930;31;34218;-64
2023/10/18 01:02:59;;;;;;;20.75;13.23;;;;;;;3.26;100.00;100746.78;5590654;31;34315;-65
2023/10/18 01:06:04;;;;;;;20.45;13.38;;;;;;;3.18;100.00;100734.25;5590883;31;34183;-64
2023/10/18 01:09:15;;;;;;;20.70;13.55;;;;;;;3.12;100.00;100715.50;5590564;31;34228;-65
2023/10/18 01:12:18;;;;;;;22.33;13.48;;;;;;;3.09;100.00;100711.34;5590798;31;34862;-65
2023/10/18 01:15:21;;;;;;;21.37;13.52;;;;;;;3.08;100.00;100717.50;5590586;31;34198;-64
2023/10/18 01:18:24;;;;;;;22.67;13.90;;;;;;;3.15;100.00;100710.84;5576801;31;34772;-65
2023/10/18 01:21:28;;;;;;;22.33;14.18;;;;;;;3.11;100.00;100711.19;5590442;31;34089;-64
2023/10/18 01:24:34;;;;;;;20.02;13.40;;;;;;;3.05;100.00;100712.47;5590542;31;34196;-65
2023/10/18 01:27:37;;;;;;;20.73;13.77;;;;;;;3.04;100.00;100722.16;5590363;31;35096;-65
2023/10/18 01:30:41;;;;;;;20.08;13.27;;;;;;;2.96;100.00;100713.16;5590705;31;34793;-64
2023/10/18 01:33:47;;;;;;;19.87;12.60;;;;;;;2.91;100.00;100703.00;5590552;31;34333;-65
2023/10/18 01:36:57;;;;;;;21.42;13.88;;;;;;;2.84;100.00;100711.44;5590383;31;33982;-64
2023/10/18 01:40:20;;;;;;;19.43;13.23;;;;;;;2.80;100.00;100713.44;5576725;31;34211;-65
2023/10/18 01:43:28;;;;;;;18.60;12.82;;;;;;;2.77;100.00;100716.25;5590204;31;34173;-65
2023/10/18 01:46:33;;;;;;;18.48;13.05;;;;;;;2.81;100.00;100714.28;5590051;31;34110;-65
2023/10/18 01:49:46;;;;;;;19.12;12.85;;;;;;;2.82;100.00;100719.38;5590541;31;34745;-64
2023/10/18 01:52:50;;;;;;;18.02;12.63;;;;;;;2.85;100.00;100718.34;5590413;31;34822;-65
2023/10/18 01:55:53;;;;;;;19.58;12.68;;;;;;;2.81;100.00;100715.09;5590101;31;34064;-65
2023/10/18 01:58:57;;;;;;;18.40;12.73;;;;;;;2.73;100.00;100719.22;5590184;31;34074;-65
2023/10/18 02:02:05;;;;;;;18.02;12.65;;;;;;;2.71;100.00;100715.88;5590179;31;34108;-65
2023/10/18 02:05:14;;;;;;;18.00;11.95;;;;;;;2.69;100.00;100700.25;5576310;31;34056;-65
2023/10/18 02:08:17;;;;;;;19.05;12.27;;;;;;;2.83;100.00;100704.50;5590064;31;34176;-64
2023/10/18 02:11:20;;;;;;;17.92;12.00;;;;;;;2.85;100.00;100708.72;5590311;31;34862;-65
2023/10/18 02:14:24;;;;;;;16.42;11.20;;;;;;;2.89;100.00;100704.91;5589967;31;35595;-65
2023/10/18 02:17:27;;;;;;;16.58;11.55;;;;;;;2.78;100.00;100706.62;5590334;31;34727;-65
2023/10/18 02:20:31;;;;;;;18.00;11.55;;;;;;;2.78;100.00;100710.09;5589936;31;34206;-65
2023/10/18 02:23:36;;;;;;;19.62;11.63;;;;;;;2.77;100.00;100705.78;5590301;31;34065;-65
2023/10/18 02:26:54;;;;;;;17.37;12.15;;;;;;;2.75;100.00;100717.34;5589862;31;34804;-65
2023/10/18 02:29:57;;;;;;;19.62;12.35;;;;;;;2.67;100.00;100714.41;5589717;31;34095;-65
2023/10/18 02:33:02;;;;;;;13.80;11.18;;;;;;;2.57;100.00;100715.06;5589805;31;34098;-65
2023/10/18 02:36:10;;;;;;;20.35;12.73;;;;;;;2.44;100.00;100714.25;5590142;31;34125;-65
2023/10/18 02:39:22;;;;;;;18.50;12.50;;;;;;;2.53;100.00;100711.00;5590151;31;34138;-65
2023/10/18 02:42:25;;;;;;;18.25;11.90;;;;;;;2.47;100.00;100713.22;5589795;31;34816;-65
2023/10/18 02:45:30;;;;;;;20.10;12.05;;;;;;;2.41;100.00;100705.78;5589672;31;34140;-65
2023/10/18 02:48:34;;;;;;;20.55;12.27;;;;;;;2.40;100.00;100707.56;5589655;31;34132;-65
2023/10/18 02:51:36;;;;;;;20.42;12.63;;;;;;;2.47;100.00;100718.47;5590027;31;34039;-65
2023/10/18 02:54:39;;;;;;;17.02;12.05;;;;;;;2.48;100.00;100720.94;5589638;31;35550;-65
2023/10/18 02:57:46;;;;;;;18.48;12.45;;;;;;;2.44;100.00;100724.72;5588937;31;34297;-65
2023/10/18 03:00:50;;;;;;;17.62;12.32;;;;;;;2.39;100.00;100721.59;5589600;31;34689;-65
2023/10/18 03:03:55;;;;;;;17.75;11.68;;;;;;;2.32;100.00;100711.69;5590051;31;34124;-65
2023/10/18 03:06:59;;;;;;;22.30;12.73;;;;;;;2.27;100.00;100721.63;5589587;31;34064;-65
2023/10/18 03:10:45;;;;;;;19.58;13.10;;;;;;;2.29;100.00;100715.31;5589563;31;34732;-65
2023/10/18 03:13:28;;;;;;;16.98;12.70;;;;;;;2.27;100.00;100714.63;5581473;31;34204;-65
2023/10/18 03:19:37;;;;;;;18.27;12.35;;;;;;;2.23;100.00;100707.09;5589489;31;34073;-65
2023/10/18 03:22:43;;;;;;;21.23;12.50;;;;;;;2.19;100.00;100701.19;5589353;31;34033;-65
2023/10/18 03:25:45;;;;;;;17.27;12.37;;;;;;;2.15;100.00;100705.81;5589415;31;34097;-64
2023/10/18 03:28:52;;;;;;;19.52;11.80;;;;;;;2.10;100.00;100697.44;5589244;31;34113;-65
2023/10/18 03:31:55;;;;;;;18.40;12.25;;;;;;;2.05;100.00;100699.53;5575526;31;34711;-65
2023/10/18 03:35:03;;;;;;;19.35;12.20;;;;;;;2.06;100.00;100692.53;5575649;31;34044;-65
2023/10/18 03:38:21;;;;;;;18.20;11.98;;;;;;;2.02;100.00;100691.91;5589254;31;34165;-65
2023/10/18 03:41:25;;;;;;;16.60;11.98;;;;;;;2.00;100.00;100695.56;5589221;31;34784;-65
2023/10/18 03:44:28;;;;;;;15.85;11.73;;;;;;;1.97;100.00;100691.41;5589284;31;34616;-66
2023/10/18 03:47:36;;;;;;;18.12;12.20;;;;;;;1.96;100.00;100689.72;5575416;31;34163;-65
2023/10/18 03:50:42;;;;;;;15.68;11.68;;;;;;;1.95;100.00;100693.28;5589275;31;34701;-65
2023/10/18 03:53:51;;;;;;;17.62;12.20;;;;;;;2.00;100.00;100688.56;5589327;31;34151;-65
2023/10/18 03:56:55;;;;;;;20.50;12.40;;;;;;;2.03;100.00;100687.53;5589140;31;34801;-65
2023/10/18 03:59:58;;;;;;;19.50;12.60;;;;;;;1.99;100.00;100688.66;5588947;31;34198;-65
2023/10/18 04:03:07;;;;;;;17.60;12.60;;;;;;;1.94;100.00;100688.13;5589107;31;34106;-65
2023/10/18 04:06:23;;;;;;;16.35;12.50;;;;;;;1.97;100.00;100704.47;5588931;31;34092;-65
2023/10/18 04:09:26;;;;;;;17.90;12.50;;;;;;;1.94;100.00;100699.44;5587890;31;34007;-65
2023/10/18 04:12:29;;;;;;;19.27;11.50;;;;;;;1.99;100.00;100704.34;5588742;31;34038;-65
2023/10/18 04:15:37;;;;;;;16.98;12.00;;;;;;;2.03;100.00;100701.41;5588706;31;34033;-65
2023/10/18 04:18:43;;;;;;;16.60;10.85;;;;;;;2.08;100.00;100701.94;5588658;31;34181;-65
2023/10/18 04:21:51;;;;;;;19.05;11.60;;;;;;;2.23;100.00;100705.28;5588570;31;34256;-66
2023/10/18 04:24:55;;;;;;;15.65;10.82;;;;;;;2.25;100.00;100703.41;5588598;31;34090;-65
2023/10/18 04:27:59;;;;;;;16.85;11.10;;;;;;;2.29;100.00;100706.62;5588515;31;34138;-65
2023/10/18 04:31:04;;;;;;;16.23;11.30;;;;;;;2.25;100.00;100707.78;5588713;31;34302;-65
2023/10/18 04:34:11;;;;;;;16.92;11.45;;;;;;;2.10;100.00;100707.91;5588648;31;34152;-65
2023/10/18 04:37:14;;;;;;;15.20;10.90;;;;;;;1.96;100.00;100708.03;5575137;31;34185;-65
2023/10/18 04:40:23;;;;;;;18.35;10.95;;;;;;;1.87;100.00;100708.66;5588231;31;34860;-65
2023/10/18 04:43:27;;;;;;;17.05;10.88;;;;;;;2.08;100.00;100708.97;5588179;31;34184;-64
2023/10/18 04:46:37;;;;;;;16.58;12.10;;;;;;;2.09;100.00;100708.00;5588056;31;34089;-65
2023/10/18 04:49:50;;;;;;;20.90;11.35;;;;;;;2.10;100.00;100712.31;5587941;31;34146;-65
2023/10/18 04:52:52;;;;;;;15.45;10.70;;;;;;;2.16;100.00;100706.66;5587753;31;34744;-65
2023/10/18 04:55:58;;;;;;;17.23;10.93;;;;;;;1.97;100.00;100707.09;5587815;31;34743;-65
2023/10/18 05:00:11;;;;;;;17.27;11.27;;;;;;;1.90;100.00;100700.59;5587835;31;34067;-65
2023/10/18 05:02:38;;;;;;;16.65;11.48;;;;;;;1.82;100.00;100699.44;5581152;31;34130;-65
2023/10/18 05:05:44;;;;;;;19.83;11.48;;;;;;;1.79;100.00;100704.91;5587554;31;34031;-65
2023/10/18 05:08:48;;;;;;;21.20;11.95;;;;;;;1.76;100.00;100703.31;5587341;31;34161;-65
2023/10/18 05:11:55;;;;;;;16.50;11.18;;;;;;;1.75;100.00;100707.69;5573637;31;34162;-65
2023/10/18 05:15:09;;;;;;;20.23;11.27;;;;;;;1.82;100.00;100712.53;5587741;31;34034;-66
2023/10/18 05:18:17;;;;;;;20.05;12.13;;;;;;;1.78;100.00;100711.91;5587290;31;34131;-66
2023/10/18 05:21:21;;;;;;;20.52;12.27;;;;;;;1.80;100.00;100712.63;5589232;31;34387;-66
2023/10/18 05:24:23;;;;;;;19.58;11.82;;;;;;;1.87;100.00;100713.06;5590176;31;34035;-66
2023/10/18 05:27:27;;;;;;;20.80;11.77;;;;;;;2.07;100.00;100725.63;5590537;31;35307;-66
2023/10/18 05:34:02;;;;;;;16.35;11.65;;;;;;;2.09;100.00;100728.94;5590061;31;34237;-66
2023/10/18 05:37:14;;;;;;;20.08;11.85;;;;;;;2.06;100.00;100726.56;5577504;31;34848;-66
2023/10/18 05:43:42;;;;;;;18.17;12.20;;;;;;;2.08;100.00;100725.50;5589888;31;34087;-66
2023/10/18 05:46:46;;;;;;;19.02;11.75;;;;;;;2.15;100.00;100732.00;5590240;31;34107;-66
2023/10/18 05:49:50;;;;;;;18.00;12.07;;;;;;;2.24;100.00;100727.06;5589569;31;34075;-66
2023/10/18 05:52:57;;;;;;;20.33;13.13;;;;;;;2.29;100.00;100731.03;5589797;31;35276;-66
2023/10/18 05:56:00;;;;;;;19.25;12.07;;;;;;;2.31;100.00;100730.94;5589413;31;34130;-66
2023/10/18 06:02:23;;;;;;;20.08;12.25;;;;;;;2.59;100.00;100731.50;5589606;31;34402;-66
2023/10/18 06:05:38;;;;;;;20.77;12.93;;;;;;;2.70;100.00;100733.38;5589397;31;34559;-66
2023/10/18 06:08:41;;;;;;;18.05;12.77;;;;;;;2.80;100.00;100738.81;5589880;31;34081;-66
2023/10/18 06:11:48;;;;;;;17.42;11.50;;;;;;;2.92;100.00;100740.53;5589782;31;35756;-66
2023/10/18 06:14:53;;;;;;;19.87;12.40;;;;;;;2.96;100.00;100734.12;5589448;31;34013;-66
2023/10/18 06:17:57;;;;;;;19.15;11.98;;;;;;;2.98;100.00;100748.78;5589759;31;34195;-66
2023/10/18 06:21:11;;;;;;;15.73;12.00;;;;;;;3.15;100.00;100738.87;5589473;31;34316;-66
2023/10/18 06:24:16;;;;;;;21.50;11.88;;;;;;;3.22;100.00;100745.34;5589209;31;35528;-65
2023/10/18 06:27:19;;;;;;;21.67;12.48;;;;;;;3.67;100.00;100754.22;5589608;31;34332;-65
2023/10/18 06:30:24;;;;;;;20.10;12.25;;;;;;;3.75;100.00;100764.97;5589094;31;34709;-65
2023/10/18 06:33:35;;;;;;;17.33;11.85;;;;;;;3.65;100.00;100762.22;5588856;31;34191;-66
2023/10/18 06:36:39;;;;;;;22.20;12.13;;;;;;;3.83;100.00;100767.84;5589094;31;34185;-66
2023/10/18 06:39:46;;;;;;;19.98;12.77;;;;;;;3.91;100.00;100774.22;5589373;31;34838;-66
2023/10/18 06:42:50;;;;;;;18.67;11.98;;;;;;;3.82;100.00;100755.72;5589407;31;34095;-66
2023/10/18 06:45:53;;;;;;;20.23;12.23;;;;;;;3.73;100.00;100765.09;5589185;31;34153;-66
2023/10/18 06:48:57;;;;;;;20.23;12.30;;;;;;;3.75;100.00;100759.72;5589209;31;33329;-66
2023/10/18 06:52:21;;;;;;;21.08;13.07;;;;;;;3.80;100.00;100758.44;5577119;31;34175;-66
2023/10/18 06:55:59;;;;;;;20.23;12.55;;;;;;;3.87;100.00;100748.34;5589139;31;34821;-66
2023/10/18 06:58:53;;;;;;;19.15;12.20;;;;;;;4.24;100.00;100747.19;5587838;31;34322;-66
2023/10/18 07:01:59;;;;;;;19.67;12.55;;;;;;;4.45;100.00;100751.72;5589634;31;34719;-66
2023/10/18 07:05:03;;;;;;;21.50;12.48;;;;;;;4.38;100.00;100757.44;5589174;31;34737;-66
2023/10/18 07:08:18;;;;;;;21.35;12.65;;;;;;;4.49;100.00;100756.63;5589125;31;34905;-66
2023/10/18 07:11:23;;;;;;;19.65;12.37;;;;;;;4.45;100.00;100754.34;5589059;31;34098;-66
2023/10/18 07:14:46;;;;;;;21.90;12.68;;;;;;;4.51;100.00;100754.69;5589033;31;34158;-67
2023/10/18 07:17:51;;;;;;;19.25;12.50;;;;;;;4.62;100.00;100753.88;5589424;31;34747;-67
2023/10/18 07:20:59;;;;;;;20.77;12.00;;;;;;;4.78;100.00;100756.97;5588931;31;34214;-67
2023/10/18 07:24:02;;;;;;;20.50;11.80;;;;;;;4.92;100.00;100753.22;5589131;31;34060;-67
2023/10/18 07:27:09;;;;;;;21.73;11.82;;;;;;;5.20;100.00;100758.78;5589211;31;34116;-67
2023/10/18 07:30:15;;;;;;;18.12;11.40;;;;;;;5.32;100.00;100750.84;5589111;31;34919;-67
2023/10/18 07:33:23;;;;;;;36.38;12.23;;;;;;;5.63;100.00;100750.00;5589343;31;34178;-67
2023/10/18 07:36:27;;;;;;;16.80;10.63;;;;;;;6.00;100.00;100735.44;5575711;31;34103;-67
2023/10/18 07:39:32;;;;;;;17.85;10.45;;;;;;;6.60;100.00;100746.13;5588985;31;34379;-67
2023/10/18 07:42:35;;;;;;;17.90;9.00;;;;;;;7.94;100.00;100742.81;5588678;31;34876;-67
2023/10/18 07:45:40;;;;;;;17.67;8.68;;;;;;;10.38;100.00;100746.06;5589185;31;34347;-68
2023/10/18 07:48:47;;;;;;;16.00;8.63;;;;;;;12.50;96.04;100748.00;5574800;31;35059;-68
2023/10/18 07:51:55;;;;;;;14.38;7.75;;;;;;;13.49;75.05;100754.34;5588811;31;34988;-67
2023/10/18 07:54:59;;;;;;;15.10;7.30;;;;;;;15.79;65.98;100754.03;5588631;31;34796;-68
2023/10/18 07:58:06;;;;;;;14.98;7.15;;;;;;;15.94;57.95;100754.78;5574926;31;34872;-68
2023/10/18 08:01:09;;;;;;;10.73;7.37;;;;;;;14.75;58.70;100749.16;5588977;31;34474;-68
2023/10/18 08:04:17;;;;;;;11.63;7.00;;;;;;;14.25;64.94;100739.19;5588681;31;34488;-68
2023/10/18 08:07:29;;;;;;;10.32;6.37;;;;;;;15.74;58.34;100740.41;5588479;31;34386;-69
2023/10/18 08:10:39;;;;;;;13.55;6.95;;;;;;;18.60;49.57;100752.50;5574835;31;34261;-69
2023/10/18 08:13:47;;;;;;;11.23;6.70;;;;;;;18.63;46.55;100737.84;5588391;31;35012;-69
2023/10/18 08:16:57;;;;;;;11.03;6.97;;;;;;;19.04;45.05;100750.91;5588253;31;34252;-69
2023/10/18 08:26:29;;;;;;;12.60;7.55;;;;;;;12.79;63.96;100732.25;5588132;31;34084;-67
2023/10/18 08:29:34;;;;;;;11.20;7.75;;;;;;;11.07;82.70;100731.75;5588259;31;34164;-67
2023/10/18 08:32:37;;;;;;;15.90;8.32;;;;;;;10.21;100.00;100722.28;5588774;31;33810;-67
2023/10/18 08:35:40;;;;;;;17.52;8.75;;;;;;;10.03;100.00;100717.81;5588018;31;34089;-67
2023/10/18 08:38:44;;;;;;;13.70;9.20;;;;;;;9.33;100.00;100712.63;5588180;31;34779;-67
2023/10/18 08:41:55;;;;;;;17.95;9.10;;;;;;;9.34;100.00;100716.94;5588173;31;34085;-67
2023/10/18 08:45:04;;;;;;;16.33;9.73;;;;;;;9.30;100.00;100715.56;5588149;31;35117;-67
2023/10/18 08:48:11;;;;;;;16.23;8.32;;;;;;;9.04;100.00;100718.97;5587837;31;34165;-67
2023/10/18 08:51:15;;;;;;;24.12;9.65;;;;;;;8.71;100.00;100711.66;5574061;31;34425;-67
2023/10/18 08:54:20;;;;;;;17.85;9.15;;;;;;;8.79;100.00;100702.97;5588019;31;34171;-68
2023/10/18 08:57:36;;;;;;;13.48;9.75;;;;;;;8.84;100.00;100698.06;5590456;31;34931;-67
2023/10/18 09:03:42;;;;;;;14.50;9.40;;;;;;;8.95;100.00;100708.47;5590250;31;34244;-67
2023/10/18 09:06:45;;;;;;;15.18;8.90;;;;;;;9.02;100.00;100696.28;5590219;31;34171;-67
2023/10/18 09:09:55;;;;;;;14.87;9.52;;;;;;;9.02;100.00;100696.28;5590173;31;34216;-67
2023/10/18 09:13:32;;;;;;;17.35;12.10;;;;;;;9.03;100.00;100693.50;5576228;31;34794;-67
2023/10/18 09:16:37;;;;;;;18.15;9.27;;;;;;;9.17;100.00;100681.53;5590209;31;34336;-67
2023/10/18 09:19:45;;;;;;;19.70;9.95;;;;;;;9.13;100.00;100683.66;5576441;31;34312;-67
2023/10/18 09:22:48;;;;;;;15.32;9.55;;;;;;;9.16;100.00;100678.06;5590693;31;34139;-67
2023/10/18 09:29:26;;;;;;;14.68;8.98;;;;;;;9.39;100.00;100682.91;5582980;31;35414;-67
2023/10/18 09:32:32;;;;;;;21.40;8.90;;;;;;;9.39;100.00;100672.31;5589926;31;34135;-66
2023/10/18 09:35:35;;;;;;;34.80;9.30;;;;;;;9.52;100.00;100681.53;5589787;31;34097;-67
2023/10/18 09:38:39;;;;;;;17.58;8.65;;;;;;;9.73;100.00;100677.72;5576092;31;34131;-67
2023/10/18 09:41:42;;;;;;;18.70;8.38;;;;;;;9.78;100.00;100678.88;5589893;31;34733;-68
2023/10/18 09:44:46;;;;;;;16.05;9.00;;;;;;;9.86;100.00;100671.00;5576213;31;34124;-67
2023/10/18 09:47:50;;;;;;;14.98;8.82;;;;;;;10.05;99.72;100675.25;5590024;31;34721;-68
2023/10/18 09:50:54;;;;;;;51.78;10.00;;;;;;;10.17;95.29;100673.19;5576687;31;33771;-68
2023/10/18 09:53:59;;;;;;;14.82;9.38;;;;;;;10.27;96.11;100669.44;5589955;31;34169;-67
2023/10/18 09:57:03;;;;;;;17.85;8.55;;;;;;;10.32;98.40;100659.16;5590701;31;34034;-65
2023/10/18 10:00:11;;;;;;;17.05;8.55;;;;;;;10.43;96.51;100660.72;5577104;31;34705;-67
2023/10/18 10:03:24;;;;;;;16.67;8.82;;;;;;;10.52;93.83;100658.91;5590423;31;34279;-67
2023/10/18 10:06:28;;;;;;;15.70;8.20;;;;;;;10.62;84.14;100651.66;5590359;31;34374;-67
2023/10/18 10:09:38;;;;;;;11.63;5.87;;;;;;;10.79;83.66;100645.41;5576328;31;34117;-67
2023/10/18 10:12:42;;;;;;;15.15;6.43;;;;;;;10.94;76.10;100642.97;5576713;31;34072;-67
2023/10/18 10:15:57;;;;;;;17.67;5.65;;;;;;;11.22;72.03;100645.16;5589522;31;34272;-66
2023/10/18 10:19:09;;;;;;;12.98;4.68;;;;;;;11.38;68.60;100638.16;5590369;31;34705;-68
2023/10/18 10:22:15;;;;;;;7.03;4.53;;;;;;;11.60;64.88;100629.50;5590252;31;34034;-69
2023/10/18 10:25:19;;;;;;;11.82;4.75;;;;;;;11.62;63.80;100622.19;5589537;31;34792;-68
2023/10/18 10:32:06;;;;;;;10.00;5.12;;;;;;;11.82;63.58;100607.56;5589279;31;34041;-67
2023/10/18 10:35:17;;;;;;;14.32;6.05;;;;;;;11.99;66.77;100619.81;5589500;31;34387;-67
2023/10/18 10:38:26;;;;;;;12.73;5.18;;;;;;;12.06;61.02;100611.97;5589062;31;34829;-68
2023/10/18 10:41:31;;;;;;;8.85;5.22;;;;;;;12.17;59.69;100595.66;5589301;31;34019;-68
2023/10/18 10:45:09;;;;;;;9.45;5.07;;;;;;;12.15;62.13;100595.00;5589689;31;34124;-69
2023/10/18 10:48:15;;;;;;;9.80;5.25;;;;;;;12.37;59.90;100585.41;5589362;31;33966;-68
2023/10/18 10:54:26;;;;;;;9.00;5.25;;;;;;;12.50;57.83;100597.16;5589487;31;34128;-69
2023/10/18 10:57:43;;;;;;;14.20;5.07;;;;;;;12.95;56.05;100592.87;5589261;31;34144;-69
2023/10/18 11:01:04;;;;;;;7.87;4.57;;;;;;;15.60;49.81;100584.34;5589209;31;34282;-69
2023/10/18 11:04:11;;;;;;;9.02;5.12;;;;;;;19.92;39.90;100579.50;5589290;31;34116;-70
2023/10/18 11:07:16;;;;;;;16.20;4.70;;;;;;;24.54;31.98;100587.03;5589008;31;35030;-67
2023/10/18 11:10:21;;;;;;;7.90;4.18;;;;;;;21.09;33.24;100578.16;5589136;31;34150;-69
2023/10/18 11:13:25;;;;;;;6.85;4.10;;;;;;;21.67;33.10;100579.06;5589332;31;34024;-70
2023/10/18 11:16:28;;;;;;;7.32;3.65;;;;;;;22.54;32.79;100573.63;5589116;31;34198;-70
2023/10/18 11:19:31;;;;;;;8.20;4.12;;;;;;;24.85;29.88;100568.34;5588298;31;34220;-70
2023/10/18 11:22:35;;;;;;;9.45;3.92;;;;;;;24.53;28.62;100571.84;5589403;31;34089;-69
2023/10/18 11:25:41;;;;;;;11.23;4.10;;;;;;;22.40;31.60;100564.16;5575125;31;35129;-70
2023/10/18 11:28:44;;;;;;;7.40;4.03;;;;;;;25.71;27.86;100566.34;5588892;31;34168;-69
2023/10/18 11:31:47;;;;;;;8.82;4.10;;;;;;;22.94;30.75;100541.94;5588980;31;34071;-70
2023/10/18 11:35:02;;;;;;;14.32;4.75;;;;;;;22.90;31.30;100539.94;5589053;31;34071;-69
2023/10/18 11:38:09;;;;;;;6.87;4.00;;;;;;;19.98;35.18;100537.38;5589110;31;34116;-69
2023/10/18 11:41:14;;;;;;;10.32;4.10;;;;;;;21.15;34.62;100528.72;5588826;31;34155;-69
2023/10/18 11:44:27;;;;;;;7.37;3.80;;;;;;;22.95;33.05;100531.91;5588718;31;34104;-69
2023/10/18 11:47:31;;;;;;;12.35;4.12;;;;;;;23.90;31.07;100520.91;5588467;31;34234;-69
2023/10/18 11:50:41;;;;;;;9.05;4.00;;;;;;;23.41;30.93;100517.22;5588610;31;34844;-69
2023/10/18 11:53:51;;;;;;;10.93;4.47;;;;;;;24.08;31.06;100523.28;5588528;31;34167;-68
2023/10/18 11:56:56;;;;;;;7.72;4.55;;;;;;;23.70;30.41;100509.81;5588896;31;34823;-68
2023/10/18 12:00:26;;;;;;;7.30;4.55;;;;;;;25.91;27.98;100510.22;5588440;31;34903;-69
2023/10/18 12:03:28;;;;;;;10.13;4.12;;;;;;;21.62;32.75;100491.72;5577167;31;34565;-68
2023/10/18 12:06:31;;;;;;;10.63;4.62;;;;;;;22.17;33.46;100494.81;5588652;31;34826;-68
2023/10/18 12:09:46;;;;;;;8.57;4.53;;;;;;;23.54;31.65;100495.22;5588236;31;34240;-68
2023/10/18 12:12:49;;;;;;;7.87;4.55;;;;;;;21.04;33.74;100489.03;5588669;31;34965;-70
2023/10/18 12:15:52;;;;;;;9.48;4.65;;;;;;;19.08;38.37;100480.50;5588506;31;34022;-69
2023/10/18 12:18:57;;;;;;;8.55;4.30;;;;;;;17.31;41.26;100469.66;5588429;31;34135;-68
2023/10/18 12:22:01;;;;;;;6.30;4.50;;;;;;;18.30;39.50;100468.50;5588670;31;34153;-68
2023/10/18 12:25:06;;;;;;;8.07;4.62;;;;;;;18.10;39.46;100461.38;5574519;31;34035;-67
2023/10/18 12:28:15;;;;;;;9.40;4.70;;;;;;;16.74;41.89;100448.91;5587978;31;34032;-67
2023/10/18 12:31:26;;;;;;;13.95;5.10;;;;;;;15.87;43.78;100454.25;5587309;31;35062;-68
2023/10/18 12:34:30;;;;;;;8.70;4.90;;;;;;;15.33;44.81;100456.84;5588253;31;34013;-68
2023/10/18 12:37:34;;;;;;;7.53;4.75;;;;;;;15.45;45.80;100443.72;5588079;31;34078;-68
2023/10/18 12:40:52;;;;;;;8.65;4.60;;;;;;;15.53;46.94;100440.94;5588183;31;34054;-69
2023/10/18 12:43:54;;;;;;;11.85;4.65;;;;;;;14.99;46.65;100438.94;5574515;31;34665;-69
2023/10/18 12:46:57;;;;;;;9.48;4.55;;;;;;;14.76;49.27;100425.81;5574496;31;34020;-69
2023/10/18 12:50:03;;;;;;;7.32;4.50;;;;;;;14.54;47.54;100418.03;5588041;31;35032;-69
2023/10/18 13:00:42;;;;;;;10.13;5.10;;;;;;;14.38;49.38;100411.09;5587410;31;33988;-68
2023/10/18 13:06:08;;;;;;;11.27;5.40;;;;;;;14.67;51.81;100402.09;5587437;31;34739;-68
2023/10/18 13:12:18;;;;;;;9.65;4.82;;;;;;;14.13;51.40;100391.16;5587449;31;34182;-68
2023/10/18 13:15:22;;;;;;;12.25;4.78;;;;;;;14.13;53.33;100393.81;5587725;31;35058;-68
2023/10/18 13:18:26;;;;;;;9.18;4.70;;;;;;;14.08;52.68;100391.72;5587435;31;33241;-67
2023/10/18 13:21:29;;;;;;;11.70;4.82;;;;;;;14.22;52.03;100388.16;5573462;31;34054;-67
2023/10/18 13:24:32;;;;;;;10.93;5.25;;;;;;;13.99;55.35;100387.50;5587194;31;34981;-67
2023/10/18 13:27:40;;;;;;;13.15;5.12;;;;;;;13.95;54.50;100383.56;5587166;31;34143;-67
2023/10/18 13:30:43;;;;;;;14.48;5.28;;;;;;;14.02;52.47;100370.31;5587132;31;34787;-69
2023/10/18 13:33:46;;;;;;;10.77;5.00;;;;;;;14.02;52.69;100376.47;5586582;31;34169;-66
2023/10/18 13:36:51;;;;;;;11.00;5.70;;;;;;;14.03;55.59;100361.28;5586772;31;34162;-67
2023/10/18 13:39:55;;;;;;;12.30;5.25;;;;;;;14.01;52.65;100350.81;5573089;31;34769;-68
2023/10/18 13:43:00;;;;;;;7.53;4.78;;;;;;;14.08;51.70;100351.72;5589647;31;34046;-67
2023/10/18 13:46:08;;;;;;;9.63;4.80;;;;;;;14.08;51.87;100345.53;5589637;31;34752;-67
2023/10/18 13:49:12;;;;;;;9.75;4.53;;;;;;;14.04;54.37;100347.75;5589463;31;34019;-67
2023/10/18 13:52:15;;;;;;;12.07;5.28;;;;;;;14.10;55.73;100330.16;5589569;31;34181;-68
2023/10/18 13:55:18;;;;;;;11.30;4.78;;;;;;;13.89;56.71;100326.47;5589485;31;34227;-67
2023/10/18 13:58:21;;;;;;;12.65;4.87;;;;;;;13.71;59.24;100328.75;5589196;31;34352;-68
2023/10/18 14:01:25;;;;;;;10.07;4.87;;;;;;;13.67;58.76;100321.31;5589250;31;34069;-67
2023/10/18 14:04:32;;;;;;;11.98;5.30;;;;;;;13.65;57.46;100323.38;5575901;31;34082;-68
2023/10/18 14:07:36;;;;;;;10.75;4.85;;;;;;;13.68;57.52;100309.66;5589420;31;34012;-68
2023/10/18 14:10:41;;;;;;;11.77;5.90;;;;;;;13.63;58.39;100301.41;5589300;31;34107;-68
2023/10/18 14:13:46;;;;;;;13.70;5.35;;;;;;;13.62;57.11;100294.41;5575471;31;34004;-68
2023/10/18 14:16:49;;;;;;;10.38;5.93;;;;;;;13.48;55.20;100293.44;5589218;31;34092;-67
2023/10/18 14:19:52;;;;;;;12.95;5.62;;;;;;;13.52;57.82;100285.91;5589187;31;34931;-67
2023/10/18 14:23:11;;;;;;;15.98;7.60;;;;;;;13.39;57.17;100295.41;5589305;31;34278;-68
2023/10/18 14:26:15;;;;;;;11.00;5.50;;;;;;;13.32;59.21;100285.69;5575462;31;34095;-68
2023/10/18 14:29:22;;;;;;;8.95;4.87;;;;;;;13.22;61.72;100280.66;5589018;31;33959;-69
2023/10/18 14:32:25;;;;;;;9.25;5.12;;;;;;;13.08;60.00;100286.78;5588311;31;34979;-68
2023/10/18 14:35:29;;;;;;;11.00;5.28;;;;;;;12.96;62.87;100281.13;5589279;31;34076;-68
2023/10/18 14:38:34;;;;;;;9.60;5.45;;;;;;;12.88;64.75;100285.72;5588281;31;34021;-68
2023/10/18 14:41:38;;;;;;;10.75;5.68;;;;;;;12.77;63.52;100286.19;5588655;31;34193;-67
2023/10/18 14:44:41;;;;;;;13.90;5.43;;;;;;;12.64;65.82;100276.19;5574849;31;34756;-67
2023/10/18 14:47:45;;;;;;;13.70;5.80;;;;;;;12.54;68.39;100273.78;5588640;31;35124;-67
2023/10/18 14:50:51;;;;;;;12.82;5.55;;;;;;;12.36;69.86;100270.66;5588547;31;35038;-67
2023/10/18 14:53:54;;;;;;;12.18;5.50;;;;;;;12.22;72.05;100276.78;5588261;31;34190;-67
2023/10/18 14:56:57;;;;;;;12.32;5.37;;;;;;;12.06;71.63;100269.78;5588762;31;34098;-68
2023/10/18 15:00:00;;;;;;;12.68;5.40;;;;;;;11.93;73.84;100272.22;5588595;31;34125;-68